createdAt,value
2023-06-04T00:03:17.476Z,7.20
2023-06-04T00:08:14.811Z,7.22
2023-06-04T00:13:12.179Z,7.97
2023-06-04T00:23:20.746Z,8.15
2023-06-04T00:28:17.975Z,6.75
2023-06-04T00:33:15.256Z,7.47
2023-06-04T00:38:12.845Z,6.82
2023-06-04T00:43:10.370Z,8.85
2023-06-04T00:48:08.111Z,7.70
2023-06-04T00:53:06.315Z,7.55
2023-06-04T00:58:05.346Z,7.95
2023-06-04T01:03:07.381Z,8.82
2023-06-04T01:08:06.981Z,7.50
2023-06-04T01:13:04.186Z,9.18
2023-06-04T01:18:04.560Z,7.53
2023-06-04T01:23:14.546Z,7.22
2023-06-04T01:28:13.204Z,8.23
2023-06-04T01:33:15.160Z,8.50
2023-06-04T01:38:12.501Z,8.00
2023-06-04T01:43:09.935Z,8.32
2023-06-04T01:48:07.764Z,9.30
2023-06-04T01:53:05.221Z,8.88
2023-06-04T01:58:02.666Z,9.75
2023-06-04T02:03:01.003Z,8.85
2023-06-04T02:07:58.562Z,8.63
2023-06-04T02:12:56.963Z,8.82
2023-06-04T02:18:14.289Z,8.05
2023-06-04T02:23:13.376Z,8.45
2023-06-04T02:28:13.810Z,8.40
2023-06-04T02:33:11.492Z,8.65
2023-06-04T02:38:09.052Z,9.77
2023-06-04T02:43:06.202Z,9.77
2023-06-04T02:48:03.702Z,8.40
2023-06-04T02:53:01.150Z,8.63
2023-06-04T02:57:58.998Z,9.68
2023-06-04T03:03:03.018Z,8.48
2023-06-04T03:08:03.764Z,8.95
2023-06-04T03:13:01.466Z,8.70
2023-06-04T03:17:58.808Z,8.60
2023-06-04T03:22:56.046Z,9.63
2023-06-04T03:27:53.328Z,8.57
2023-06-04T03:32:50.968Z,9.52
2023-06-04T03:37:48.911Z,9.10
2023-06-04T03:42:50.030Z,10.02
2023-06-04T03:47:49.988Z,9.95
2023-06-04T03:52:48.082Z,11.40
2023-06-04T03:57:46.994Z,10.93
2023-06-04T04:02:45.586Z,9.63
2023-06-04T04:07:44.329Z,9.75
2023-06-04T04:12:41.982Z,8.82
2023-06-04T04:22:43.532Z,8.98
2023-06-04T04:27:42.121Z,9.55
2023-06-04T04:32:40.176Z,9.52
2023-06-04T04:37:39.891Z,9.88
2023-06-04T04:42:37.926Z,10.98
2023-06-04T04:47:35.177Z,10.27
2023-06-04T04:52:34.206Z,9.88
2023-06-04T04:57:31.640Z,9.73
2023-06-04T05:02:29.098Z,8.98
2023-06-04T05:07:27.257Z,8.45
2023-06-04T05:12:26.814Z,9.18
2023-06-04T05:17:31.691Z,9.00
2023-06-04T05:22:30.099Z,8.85
2023-06-04T05:27:28.740Z,8.20
2023-06-04T05:32:29.745Z,9.07
2023-06-04T05:37:30.367Z,7.70
2023-06-04T05:42:27.528Z,8.82
2023-06-04T05:47:25.413Z,8.23
2023-06-04T05:52:22.783Z,7.60
2023-06-04T05:57:21.164Z,7.75
2023-06-04T06:02:18.573Z,7.78
2023-06-04T06:07:15.860Z,8.18
2023-06-04T06:12:13.093Z,9.05
2023-06-04T06:17:10.258Z,7.60
2023-06-04T06:22:07.543Z,9.32
2023-06-04T06:27:05.062Z,7.72
2023-06-04T06:32:02.481Z,7.72
2023-06-04T06:36:59.738Z,7.53
2023-06-04T06:41:56.993Z,8.35
2023-06-04T06:46:54.307Z,8.85
2023-06-04T06:51:51.941Z,8.38
2023-06-04T06:56:54.637Z,8.80
2023-06-04T07:01:52.110Z,8.95
2023-06-04T07:06:49.478Z,7.97
2023-06-04T07:11:47.027Z,8.40
2023-06-04T07:16:47.542Z,8.43
2023-06-04T07:21:44.876Z,7.55
2023-06-04T07:26:42.168Z,7.10
2023-06-04T07:31:39.505Z,8.15
2023-06-04T07:36:39.322Z,7.07
2023-06-04T07:41:36.540Z,6.82
2023-06-04T07:46:33.768Z,7.07
2023-06-04T07:51:31.104Z,7.03
2023-06-04T07:56:28.340Z,5.85
2023-06-04T08:01:25.935Z,5.97
2023-06-04T08:06:26.910Z,6.22
2023-06-04T08:11:26.024Z,5.75
2023-06-04T08:16:23.777Z,6.60
2023-06-04T08:21:28.550Z,5.32
2023-06-04T08:26:28.125Z,5.70
2023-06-04T08:31:25.611Z,5.72
2023-06-04T08:36:22.874Z,5.85
